createdAt,value
2022-08-26T00:01:38.355Z,20.90
2022-08-26T00:04:05.350Z,20.90
2022-08-26T00:06:32.678Z,20.90
2022-08-26T00:08:59.965Z,20.80
2022-08-26T00:11:27.269Z,20.70
2022-08-26T00:13:57.687Z,20.80
2022-08-26T00:16:27.181Z,20.80
2022-08-26T00:18:54.249Z,20.80
2022-08-26T00:21:21.390Z,20.60
2022-08-26T00:23:48.556Z,20.70
2022-08-26T00:26:15.839Z,20.70
2022-08-26T00:28:43.054Z,20.50
2022-08-26T00:31:10.855Z,20.50
2022-08-26T00:33:38.990Z,20.50
2022-08-26T00:36:06.979Z,20.60
2022-08-26T00:38:35.576Z,20.60
2022-08-26T00:41:05.214Z,20.50
2022-08-26T00:43:47.521Z,20.50
2022-08-26T00:46:19.264Z,20.50
2022-08-26T00:48:49.847Z,20.50
2022-08-26T00:51:23.245Z,20.50
2022-08-26T00:54:01.858Z,20.60
2022-08-26T00:57:08.763Z,20.50
2022-08-26T00:59:45.789Z,20.40
2022-08-26T01:02:20.888Z,20.10
2022-08-26T01:05:00.766Z,19.90
2022-08-26T01:07:31.350Z,20.00
2022-08-26T01:10:00.740Z,20.20
2022-08-26T01:12:33.451Z,20.30
2022-08-26T01:15:02.064Z,20.40
2022-08-26T01:17:28.782Z,20.40
2022-08-26T01:20:24.084Z,20.40
2022-08-26T01:22:55.983Z,20.30
2022-08-26T01:25:25.268Z,20.30
2022-08-26T01:27:53.131Z,20.20
2022-08-26T01:30:20.942Z,20.20
2022-08-26T01:32:51.172Z,20.20
2022-08-26T01:35:20.264Z,20.30
2022-08-26T01:37:49.725Z,20.30
2022-08-26T01:40:26.481Z,20.40
2022-08-26T01:42:55.622Z,20.20
2022-08-26T01:45:30.411Z,20.20
2022-08-26T01:48:00.079Z,20.10
2022-08-26T01:50:30.698Z,20.10
2022-08-26T01:53:01.035Z,19.90
2022-08-26T01:55:32.808Z,20.10
2022-08-26T01:58:01.350Z,20.20
2022-08-26T02:00:28.898Z,20.20
2022-08-26T02:03:16.599Z,19.80
2022-08-26T02:06:00.672Z,19.90
2022-08-26T02:08:49.441Z,19.90
2022-08-26T02:11:18.550Z,20.00
2022-08-26T02:13:48.926Z,20.00
2022-08-26T02:16:22.400Z,19.90
2022-08-26T02:18:53.358Z,19.60
2022-08-26T02:21:20.335Z,19.90
2022-08-26T02:59:24.916Z,19.70
2022-08-26T03:01:52.305Z,19.60
2022-08-26T03:04:23.768Z,19.40
2022-08-26T03:06:53.367Z,19.50
2022-08-26T03:09:22.678Z,19.50
2022-08-26T03:11:51.172Z,19.60
2022-08-26T03:14:17.994Z,19.80
2022-08-26T03:16:44.818Z,19.70
2022-08-26T03:19:15.424Z,19.70
2022-08-26T03:21:44.875Z,19.70
2022-08-26T03:24:15.669Z,19.70
2022-08-26T03:26:52.479Z,19.80
2022-08-26T03:29:38.914Z,19.70
2022-08-26T03:32:06.048Z,19.70
2022-08-26T03:34:32.743Z,19.70
2022-08-26T03:36:59.649Z,19.60
2022-08-26T03:39:26.411Z,19.70
2022-08-26T03:41:54.972Z,19.50
2022-08-26T03:44:21.963Z,19.40
2022-08-26T03:46:49.580Z,19.50
2022-08-26T03:49:16.422Z,19.40
2022-08-26T03:51:43.127Z,19.30
2022-08-26T03:54:11.606Z,19.40
2022-08-26T03:56:38.432Z,19.40
2022-08-26T03:59:07.544Z,19.20
2022-08-26T04:01:34.729Z,19.00
2022-08-26T04:04:01.675Z,18.90
2022-08-26T04:06:38.827Z,19.10
2022-08-26T04:09:09.626Z,19.10
2022-08-26T04:11:38.626Z,19.10
2022-08-26T04:14:09.716Z,19.10
2022-08-26T04:16:36.938Z,19.10
2022-08-26T04:19:03.999Z,18.80
2022-08-26T04:21:30.704Z,18.70
2022-08-26T04:23:58.283Z,19.00
2022-08-26T04:26:26.164Z,19.00
2022-08-26T04:28:55.655Z,18.80
2022-08-26T04:31:23.436Z,18.60
2022-08-26T04:33:50.719Z,18.50
2022-08-26T04:36:19.923Z,18.80
2022-08-26T04:38:47.642Z,19.10
2022-08-26T04:41:14.871Z,18.70
2022-08-26T04:43:42.990Z,18.60
2022-08-26T04:46:12.978Z,19.00
2022-08-26T04:48:41.020Z,19.20
2022-08-26T04:51:09.758Z,19.30
2022-08-26T04:53:37.901Z,19.50
2022-08-26T04:56:05.119Z,19.40
2022-08-26T04:58:32.464Z,19.50
2022-08-26T05:00:59.689Z,19.40
2022-08-26T05:03:27.256Z,19.10
2022-08-26T05:05:58.262Z,19.20
2022-08-26T05:08:24.998Z,19.20
2022-08-26T05:10:55.794Z,19.30
2022-08-26T05:13:25.247Z,19.30
2022-08-26T05:15:52.607Z,19.30
2022-08-26T05:18:22.821Z,19.50
2022-08-26T05:20:54.008Z,19.50
2022-08-26T05:23:22.762Z,19.40
2022-08-26T05:25:52.101Z,19.20
2022-08-26T05:28:22.186Z,19.10
2022-08-26T05:30:50.131Z,18.70
2022-08-26T05:33:18.103Z,19.00
2022-08-26T05:35:45.545Z,19.30
2022-08-26T05:38:16.465Z,19.40
2022-08-26T05:40:52.881Z,19.50
2022-08-26T05:43:20.904Z,19.60
2022-08-26T05:45:50.546Z,19.60
2022-08-26T05:48:24.056Z,19.60
2022-08-26T05:50:52.990Z,19.40
2022-08-26T05:53:22.983Z,19.30
2022-08-26T05:55:54.223Z,19.30
2022-08-26T05:58:22.363Z,19.40
2022-08-26T06:01:14.441Z,19.60
2022-08-26T06:03:44.660Z,19.70
2022-08-26T06:06:14.754Z,19.90
2022-08-26T06:08:42.243Z,20.00
2022-08-26T06:11:18.669Z,20.10
2022-08-26T06:13:46.436Z,20.10
2022-08-26T06:16:16.675Z,20.00
2022-08-26T06:18:45.775Z,20.10
2022-08-26T06:21:13.194Z,20.00
2022-08-26T06:23:58.759Z,20.00
2022-08-26T06:26:26.219Z,20.20
2022-08-26T06:28:55.299Z,20.20
2022-08-26T06:31:23.581Z,20.10
2022-08-26T06:33:51.307Z,20.10
2022-08-26T06:36:21.147Z,20.20
2022-08-26T06:38:49.530Z,20.40
2022-08-26T06:41:17.990Z,20.40
2022-08-26T06:43:44.882Z,20.30
2022-08-26T06:46:13.797Z,20.30
2022-08-26T06:48:40.703Z,20.20
2022-08-26T06:51:11.481Z,20.50
2022-08-26T06:53:41.037Z,20.50
2022-08-26T06:56:09.993Z,20.50
2022-08-26T06:58:39.535Z,20.50
2022-08-26T07:01:26.369Z,20.60
2022-08-26T07:03:55.926Z,20.70
2022-08-26T07:06:25.510Z,20.80
2022-08-26T07:08:54.116Z,20.80
2022-08-26T07:11:20.990Z,20.60
2022-08-26T07:13:47.981Z,20.60
2022-08-26T07:16:18.023Z,20.80
2022-08-26T07:18:46.255Z,20.90
2022-08-26T07:21:16.511Z,21.00
2022-08-26T07:23:45.263Z,21.00
2022-08-26T07:26:17.646Z,20.90
2022-08-26T07:28:46.171Z,20.90
2022-08-26T07:31:15.341Z,21.00
2022-08-26T07:33:43.080Z,20.90
2022-08-26T07:36:12.139Z,20.90
2022-08-26T07:38:39.856Z,21.20
2022-08-26T07:41:08.555Z,21.00
2022-08-26T07:43:36.859Z,21.00
2022-08-26T07:46:06.883Z,20.90
2022-08-26T07:48:35.202Z,21.10
2022-08-26T07:51:03.418Z,21.20
2022-08-26T07:53:30.131Z,21.40
2022-08-26T07:55:58.819Z,21.70
2022-08-26T07:58:25.751Z,21.60
2022-08-26T08:00:53.163Z,21.50
2022-08-26T08:03:20.602Z,21.80
2022-08-26T08:05:47.391Z,21.80
2022-08-26T08:08:26.723Z,21.80
2022-08-26T08:10:55.147Z,22.10
2022-08-26T08:13:22.571Z,22.40
2022-08-26T08:15:50.591Z,22.30
2022-08-26T08:18:18.190Z,22.40
2022-08-26T08:20:59.433Z,22.40
2022-08-26T08:23:32.799Z,22.60
2022-08-26T08:26:09.043Z,22.60
2022-08-26T08:28:37.002Z,22.90
2022-08-26T08:31:04.968Z,23.00
2022-08-26T08:33:33.691Z,23.20
2022-08-26T08:36:01.094Z,23.40
2022-08-26T08:38:28.746Z,23.30
2022-08-26T08:40:55.458Z,23.20
2022-08-26T08:43:38.194Z,23.40
2022-08-26T08:46:10.815Z,23.30
2022-08-26T08:48:43.170Z,23.20
2022-08-26T08:51:39.764Z,23.20
2022-08-26T08:54:07.282Z,23.30
2022-08-26T08:56:39.994Z,23.30
2022-08-26T08:59:22.806Z,23.30
2022-08-26T09:01:54.065Z,23.30
2022-08-26T09:04:41.848Z,23.30
2022-08-26T09:07:13.171Z,23.50
2022-08-26T09:09:48.845Z,23.50
2022-08-26T09:12:29.766Z,23.70
2022-08-26T09:15:02.687Z,23.70
2022-08-26T09:17:53.007Z,23.90
2022-08-26T09:20:45.540Z,24.00
2022-08-26T09:23:12.869Z,23.90
2022-08-26T09:25:58.360Z,23.90
2022-08-26T09:28:27.434Z,24.10
2022-08-26T09:31:13.335Z,23.90
2022-08-26T09:33:41.115Z,23.90
2022-08-26T09:36:22.746Z,24.10
2022-08-26T09:38:52.626Z,24.10
2022-08-26T09:41:25.574Z,24.30
2022-08-26T09:44:22.058Z,24.50
2022-08-26T09:46:59.023Z,24.40
2022-08-26T09:49:37.084Z,24.50
2022-08-26T09:52:17.421Z,24.50
2022-08-26T09:54:45.407Z,24.60
2022-08-26T09:57:26.058Z,24.70
2022-08-26T09:59:53.342Z,24.70
2022-08-26T10:02:20.183Z,24.90
2022-08-26T10:04:56.437Z,24.60
2022-08-26T10:07:46.246Z,24.80
2022-08-26T10:10:26.249Z,25.00
2022-08-26T10:13:16.659Z,25.00
2022-08-26T10:16:13.351Z,25.00
2022-08-26T10:19:08.014Z,25.20
2022-08-26T10:21:45.466Z,25.20
2022-08-26T10:24:18.192Z,25.30
2022-08-26T10:26:55.375Z,25.30
2022-08-26T10:29:45.675Z,25.50
2022-08-26T10:32:35.148Z,25.80
2022-08-26T10:35:06.431Z,25.50
2022-08-26T10:37:41.442Z,25.70
2022-08-26T10:40:14.245Z,25.60
2022-08-26T10:42:46.941Z,25.60
2022-08-26T10:45:25.229Z,26.00
2022-08-26T10:48:02.211Z,26.40
2022-08-26T10:50:56.414Z,26.50
2022-08-26T10:53:54.510Z,26.40
2022-08-26T10:56:39.950Z,26.30
2022-08-26T10:59:16.235Z,26.00
2022-08-26T11:01:52.634Z,26.60
2022-08-26T11:04:49.203Z,26.70
2022-08-26T11:07:39.583Z,26.80
2022-08-26T11:10:17.143Z,26.70
2022-08-26T11:12:49.192Z,27.00
2022-08-26T11:15:29.320Z,27.20
2022-08-26T11:18:03.618Z,27.40
2022-08-26T11:20:46.045Z,27.60
2022-08-26T11:23:14.291Z,27.50
2022-08-26T11:25:57.162Z,27.70
2022-08-26T11:28:49.801Z,27.20
2022-08-26T11:31:25.465Z,27.30
2022-08-26T11:34:00.161Z,27.40
2022-08-26T11:36:39.138Z,27.90
2022-08-26T11:39:28.686Z,28.20
2022-08-26T11:42:00.458Z,28.20
2022-08-26T11:44:39.509Z,28.50
2022-08-26T11:47:11.346Z,27.80
2022-08-26T11:49:39.138Z,27.90
2022-08-26T11:52:26.379Z,28.10
2022-08-26T11:55:10.973Z,28.00
2022-08-26T11:57:47.500Z,28.10
2022-08-26T12:00:24.134Z,28.40
2022-08-26T12:02:52.659Z,28.30
2022-08-26T12:05:30.971Z,28.90
2022-08-26T12:08:02.833Z,29.50
2022-08-26T12:10:33.511Z,29.70
2022-08-26T12:13:03.415Z,29.90
2022-08-26T12:15:32.237Z,28.40
2022-08-26T12:18:30.114Z,28.40
2022-08-26T12:21:12.106Z,28.60
2022-08-26T12:23:51.542Z,28.40
2022-08-26T12:26:35.384Z,29.10
2022-08-26T12:29:10.782Z,29.20
2022-08-26T12:31:47.978Z,29.70
2022-08-26T12:34:17.956Z,29.50
2022-08-26T12:39:28.562Z,29.80
2022-08-26T12:42:20.743Z,29.70
2022-08-26T12:44:54.029Z,30.10
2022-08-26T12:47:42.789Z,30.20
2022-08-26T12:50:10.430Z,30.20
2022-08-26T12:52:51.224Z,31.00
2022-08-26T12:55:25.468Z,31.20
2022-08-26T12:58:15.738Z,30.90
2022-08-26T13:00:48.514Z,30.30
2022-08-26T13:03:48.431Z,30.70
2022-08-26T13:06:29.670Z,30.00
2022-08-26T13:08:56.376Z,30.20
2022-08-26T13:11:30.361Z,30.20
2022-08-26T13:14:09.057Z,31.00
2022-08-26T13:16:38.253Z,31.10
2022-08-26T13:19:17.366Z,31.40
2022-08-26T13:21:53.808Z,31.20
2022-08-26T13:24:26.575Z,30.90
2022-08-26T13:26:53.407Z,31.70
2022-08-26T13:29:20.564Z,32.00
2022-08-26T13:31:47.739Z,31.10
2022-08-26T13:34:20.164Z,29.90
2022-08-26T13:36:53.294Z,29.50
2022-08-26T13:39:20.807Z,29.20
2022-08-26T13:41:48.187Z,30.50
2022-08-26T13:44:15.032Z,31.50
2022-08-26T13:46:42.169Z,32.40
2022-08-26T13:49:09.568Z,31.90
2022-08-26T13:51:37.669Z,31.80
2022-08-26T13:54:05.581Z,32.40
2022-08-26T13:56:33.047Z,32.40
2022-08-26T13:59:01.252Z,32.30
2022-08-26T14:01:31.965Z,32.60
2022-08-26T14:04:01.174Z,33.00
2022-08-26T14:06:27.891Z,33.60
2022-08-26T14:08:54.612Z,33.30
2022-08-26T14:11:21.594Z,33.60
2022-08-26T14:13:48.504Z,33.60
2022-08-26T14:16:37.319Z,34.00
2022-08-26T14:19:24.305Z,33.00
2022-08-26T14:21:51.243Z,33.40
2022-08-26T14:24:17.989Z,33.00
2022-08-26T14:26:44.776Z,33.00
2022-08-26T14:29:14.640Z,33.00
2022-08-26T14:31:43.446Z,32.40
2022-08-26T14:34:11.523Z,32.70
2022-08-26T14:36:38.529Z,32.80
2022-08-26T14:39:12.377Z,32.30
2022-08-26T14:41:54.316Z,32.30
2022-08-26T14:44:24.426Z,31.30
2022-08-26T14:46:52.739Z,30.20
2022-08-26T14:49:20.738Z,29.90
2022-08-26T14:51:47.940Z,29.70
2022-08-26T14:54:16.270Z,29.50
2022-08-26T14:56:50.110Z,30.50
2022-08-26T14:59:29.941Z,31.60
2022-08-26T15:01:57.755Z,32.10
2022-08-26T15:04:25.287Z,31.00
2022-08-26T15:06:54.538Z,30.00
2022-08-26T15:09:22.306Z,29.40
2022-08-26T15:11:49.098Z,29.10
2022-08-26T15:14:19.133Z,29.10
2022-08-26T15:16:51.675Z,29.40
2022-08-26T15:19:18.752Z,29.40
2022-08-26T15:21:46.871Z,28.80
2022-08-26T15:24:15.161Z,29.00
2022-08-26T15:26:42.403Z,28.90
2022-08-26T15:29:09.157Z,28.40
2022-08-26T15:31:36.465Z,27.90
2022-08-26T15:34:07.395Z,27.90
2022-08-26T15:36:38.655Z,28.00
2022-08-26T15:39:07.147Z,27.90
2022-08-26T15:41:35.015Z,27.90
2022-08-26T15:44:02.212Z,27.70
2022-08-26T15:46:31.336Z,27.40
2022-08-26T15:48:58.065Z,27.20
2022-08-26T15:51:28.825Z,27.00
2022-08-26T15:53:58.923Z,26.90
2022-08-26T15:56:28.120Z,26.80
2022-08-26T15:58:56.236Z,26.70
2022-08-26T16:01:27.397Z,26.70
2022-08-26T16:03:56.208Z,26.90
2022-08-26T16:06:27.480Z,26.90
2022-08-26T16:08:55.979Z,26.90
2022-08-26T16:11:24.150Z,26.70
2022-08-26T16:13:50.956Z,26.80
2022-08-26T16:16:18.370Z,26.70
2022-08-26T16:18:46.874Z,26.50
2022-08-26T16:21:19.934Z,26.50
2022-08-26T16:23:46.928Z,26.20
2022-08-26T16:26:17.962Z,26.10
2022-08-26T16:28:45.530Z,26.00
2022-08-26T16:31:12.353Z,25.90
2022-08-26T16:33:40.590Z,25.80
2022-08-26T16:36:08.337Z,25.90
2022-08-26T16:38:35.982Z,25.80
2022-08-26T16:41:04.454Z,25.60
2022-08-26T16:43:32.226Z,25.50
2022-08-26T16:45:59.575Z,25.50
2022-08-26T16:48:27.385Z,25.40
2022-08-26T16:50:55.304Z,25.40
2022-08-26T16:53:22.899Z,25.10
2022-08-26T16:55:50.600Z,25.10
2022-08-26T16:58:18.175Z,25.10
2022-08-26T17:00:45.229Z,25.10
2022-08-26T17:03:12.163Z,25.00
2022-08-26T17:05:39.023Z,25.10
2022-08-26T17:08:06.020Z,25.00
2022-08-26T17:10:33.546Z,25.00
2022-08-26T17:13:02.163Z,25.00
2022-08-26T17:15:29.473Z,25.00
2022-08-26T17:17:56.715Z,24.90
2022-08-26T17:20:24.633Z,24.90
2022-08-26T17:22:53.260Z,24.90
2022-08-26T17:25:27.634Z,24.70
2022-08-26T17:30:26.478Z,24.70
2022-08-26T17:32:54.355Z,24.80
2022-08-26T17:35:21.286Z,24.70
2022-08-26T17:37:48.382Z,24.50
2022-08-26T17:40:21.315Z,24.50
2022-08-26T17:42:48.692Z,24.40
2022-08-26T17:47:50.245Z,24.30
2022-08-26T17:50:18.711Z,24.20
2022-08-26T17:52:46.599Z,24.10
2022-08-26T17:55:16.830Z,24.20
2022-08-26T17:57:44.242Z,24.20
2022-08-26T18:00:26.216Z,24.20
2022-08-26T18:02:54.431Z,24.10
2022-08-26T18:05:22.560Z,24.20
2022-08-26T18:07:49.473Z,24.20
2022-08-26T18:10:18.347Z,24.20
2022-08-26T18:12:45.943Z,24.00
2022-08-26T18:15:14.201Z,23.80
2022-08-26T18:17:41.747Z,23.60
2022-08-26T18:20:16.023Z,23.30
2022-08-26T18:22:43.435Z,23.10
2022-08-26T18:25:10.932Z,23.10
2022-08-26T18:27:38.307Z,23.00
2022-08-26T18:30:10.497Z,23.00
2022-08-26T18:32:39.030Z,23.10
2022-08-26T18:35:06.283Z,23.20
2022-08-26T18:37:34.046Z,23.30
2022-08-26T18:40:00.810Z,23.00
2022-08-26T18:42:30.149Z,22.60
2022-08-26T18:44:57.016Z,22.70
2022-08-26T18:47:23.743Z,22.60
2022-08-26T18:49:51.192Z,22.40
2022-08-26T18:52:18.070Z,22.40
2022-08-26T18:54:45.125Z,22.50
2022-08-26T18:57:12.064Z,22.60
2022-08-26T18:59:38.979Z,22.50
2022-08-26T19:02:05.846Z,22.30
2022-08-26T19:04:34.154Z,22.40
2022-08-26T19:07:01.198Z,22.20
2022-08-26T19:09:28.007Z,22.00
2022-08-26T19:14:28.214Z,21.50
2022-08-26T19:16:55.490Z,21.40
2022-08-26T19:19:25.796Z,21.10
2022-08-26T19:21:53.686Z,20.90
2022-08-26T19:24:21.695Z,20.90
2022-08-26T19:26:58.032Z,21.00
2022-08-26T19:29:28.715Z,21.10
2022-08-26T19:31:55.546Z,21.10
2022-08-26T19:34:22.210Z,21.10
2022-08-26T19:36:52.942Z,21.00
2022-08-26T19:39:20.660Z,21.10
2022-08-26T19:41:47.444Z,21.00
2022-08-26T19:44:40.358Z,21.00
2022-08-26T19:47:09.300Z,21.00
2022-08-26T19:49:37.079Z,20.70
2022-08-26T19:52:05.558Z,20.40
2022-08-26T19:54:32.506Z,20.30
2022-08-26T19:56:59.167Z,20.30
2022-08-26T19:59:26.015Z,20.40
2022-08-26T20:02:00.427Z,20.50
2022-08-26T20:04:29.727Z,20.50
2022-08-26T20:06:58.710Z,20.50
2022-08-26T20:09:31.547Z,20.50
2022-08-26T20:11:58.762Z,20.40
2022-08-26T20:14:26.968Z,20.10
2022-08-26T20:16:54.085Z,20.00
2022-08-26T20:19:39.639Z,20.00
2022-08-26T20:22:06.855Z,20.20
2022-08-26T20:24:34.100Z,20.20
2022-08-26T20:27:06.792Z,20.20
2022-08-26T20:29:35.100Z,20.20
2022-08-26T20:32:02.558Z,20.20
2022-08-26T20:34:30.019Z,20.20
2022-08-26T20:36:56.820Z,20.10
2022-08-26T20:39:23.622Z,20.20
2022-08-26T20:41:50.367Z,20.30
2022-08-26T20:44:17.726Z,20.20
2022-08-26T20:46:45.322Z,20.30
2022-08-26T20:49:13.134Z,20.20
2022-08-26T20:51:40.327Z,20.30
2022-08-26T20:54:07.288Z,20.30
2022-08-26T20:56:34.386Z,20.30
2022-08-26T20:59:01.118Z,20.30
2022-08-26T21:01:34.373Z,20.20
2022-08-26T21:04:04.062Z,20.20
2022-08-26T21:06:32.594Z,20.30
2022-08-26T21:09:01.342Z,20.20
2022-08-26T21:11:29.115Z,20.20
2022-08-26T21:14:16.892Z,20.30
2022-08-26T21:16:43.311Z,20.30
2022-08-26T21:19:13.683Z,20.20
2022-08-26T21:21:41.982Z,20.20
2022-08-26T21:24:09.263Z,20.30
2022-08-26T21:26:36.417Z,20.40
2022-08-26T21:29:07.654Z,20.40
2022-08-26T21:31:34.913Z,20.40
2022-08-26T21:34:01.643Z,20.40
2022-08-26T21:36:28.346Z,20.30
2022-08-26T21:38:57.071Z,20.30
2022-08-26T21:41:24.871Z,20.40
2022-08-26T21:43:53.776Z,20.40
2022-08-26T21:46:23.359Z,20.40
2022-08-26T21:48:54.034Z,20.30
2022-08-26T21:51:23.103Z,20.30
2022-08-26T21:53:52.627Z,20.20
2022-08-26T21:56:20.371Z,20.30
2022-08-26T21:58:47.258Z,20.40
2022-08-26T22:01:21.293Z,20.40
2022-08-26T22:03:49.499Z,20.50
2022-08-26T22:06:18.999Z,20.30
2022-08-26T22:08:45.794Z,20.00
2022-08-26T22:11:13.380Z,19.80
2022-08-26T22:13:42.422Z,19.90
2022-08-26T22:16:10.245Z,20.30
2022-08-26T22:18:38.153Z,20.40
2022-08-26T22:21:07.815Z,20.60
2022-08-26T22:23:36.077Z,20.80
2022-08-26T22:26:04.067Z,21.00
2022-08-26T22:28:31.664Z,21.10
2022-08-26T22:30:58.415Z,21.00
2022-08-26T22:33:25.527Z,20.70
2022-08-26T22:35:53.223Z,20.60
2022-08-26T22:38:21.185Z,20.80
2022-08-26T22:40:55.120Z,21.00
2022-08-26T22:43:22.739Z,20.90
2022-08-26T22:45:50.595Z,20.80
2022-08-26T22:48:20.009Z,21.00
2022-08-26T22:50:49.935Z,21.10
2022-08-26T22:53:18.298Z,20.90
2022-08-26T22:55:45.935Z,20.90
2022-08-26T22:58:17.918Z,21.00
2022-08-26T23:00:47.722Z,21.30
2022-08-26T23:03:16.792Z,20.90
2022-08-26T23:05:45.482Z,20.90
2022-08-26T23:08:13.887Z,20.90
2022-08-26T23:10:43.332Z,20.90
2022-08-26T23:13:10.507Z,20.80
2022-08-26T23:15:38.141Z,20.80
2022-08-26T23:18:07.224Z,21.00
2022-08-26T23:20:34.886Z,21.10
2022-08-26T23:23:01.911Z,21.20
2022-08-26T23:25:29.810Z,21.20
2022-08-26T23:27:58.048Z,21.20
2022-08-26T23:30:30.422Z,21.30
2022-08-26T23:32:58.502Z,21.20
2022-08-26T23:35:25.726Z,20.90
2022-08-26T23:37:52.905Z,20.80
2022-08-26T23:40:27.077Z,20.50
2022-08-26T23:42:56.175Z,20.30
2022-08-26T23:45:23.787Z,20.20
2022-08-26T23:47:50.594Z,19.90
2022-08-26T23:50:19.793Z,19.70
2022-08-26T23:53:05.703Z,19.90
2022-08-26T23:55:39.134Z,19.80
2022-08-26T23:58:06.504Z,19.70
